Weather at Oberschleißheim Airfield

Public forecast

Using degrees Celsius for public forecast. Weather courtesy of forecast.io.

Closest aviation weather report (METAR) to Oberschleißheim Airfield

Closest report is Munich Airport, 11.3 nm (20.9 km) NE. Retrieved 2021/01/20 21:20 UTC (28 minutes ago):

EDDM 202120Z VRB01KT CAVOK M04/M04 Q1005 R26L/290095 NOSIG

Closest aviation forecast (TAF) to Oberschleißheim Airfield

Closest forecast is Munich Airport, 11.3 nm (20.9 km) NE. Retrieved 2021/01/20 18:27 UTC (3 hours ago):

TAF EDDM 201700Z 2018/2124 14004KT CAVOK